sensor_id;sensor_type;location;lat;lon;timestamp;pressure;altitude;pressure_sealevel;temperature;humidity
4326;BME280;58429;49.826;10.880;2024-01-15T00:00:59;97341;;;-3.57;86.43
4326;BME280;58429;49.826;10.880;2024-01-15T00:01:59;97340;;;-3.63;86.39
4326;BME280;58429;49.826;10.880;2024-01-15T00:02:59;97341;;;-3.57;86.43
4326;BME280;58429;49.826;10.880;2024-01-15T00:03:59;97342;;;-3.59;86.39
4326;BME280;58429;49.826;10.880;2024-01-15T00:04:59;97337;;;-3.55;86.47
4326;BME280;58429;49.826;10.880;2024-01-15T00:05:59;97344;;;-3.57;86.54
4326;BME280;58429;49.826;10.880;2024-01-15T00:06:59;97350;;;-3.56;86.48
4326;BME280;58429;49.826;10.880;2024-01-15T00:07:58;97340;;;-3.55;86.42
4326;BME280;58429;49.826;10.880;2024-01-15T00:08:59;97340;;;-3.55;86.34
4326;BME280;58429;49.826;10.880;2024-01-15T00:09:59;97325;;;-3.55;86.35
4326;BME280;58429;49.826;10.880;2024-01-15T00:10:59;97323;;;-3.58;86.23
4326;BME280;58429;49.826;10.880;2024-01-15T00:11:59;97320;;;-3.54;86.25
4326;BME280;58429;49.826;10.880;2024-01-15T00:12:59;97308;;;-3.52;86.34
4326;BME280;58429;49.826;10.880;2024-01-15T00:13:59;97323;;;-3.54;86.24
4326;BME280;58429;49.826;10.880;2024-01-15T00:15:59;97321;;;-3.53;86.21
4326;BME280;58429;49.826;10.880;2024-01-15T00:17:59;97313;;;-3.53;86.3
4326;BME280;58429;49.826;10.880;2024-01-15T00:18:59;97318;;;-3.54;86.29
4326;BME280;58429;49.826;10.880;2024-01-15T00:19:59;97313;;;-3.57;86.26
4326;BME280;58429;49.826;10.880;2024-01-15T00:20:59;97312;;;-3.51;86.23
4326;BME280;58429;49.826;10.880;2024-01-15T00:21:59;97306;;;-3.53;86.18
4326;BME280;58429;49.826;10.880;2024-01-15T00:22:59;97315;;;-3.52;86.12
4326;BME280;58429;49.826;10.880;2024-01-15T00:23:59;97311;;;-3.52;86.13
4326;BME280;58429;49.826;10.880;2024-01-15T00:24:59;97308;;;-3.51;86.16
4326;BME280;58429;49.826;10.880;2024-01-15T00:25:59;97314;;;-3.5;86.21
4326;BME280;58429;49.826;10.880;2024-01-15T00:26:59;97307;;;-3.53;86.09
4326;BME280;58429;49.826;10.880;2024-01-15T00:27:59;97302;;;-3.52;86.14
4326;BME280;58429;49.826;10.880;2024-01-15T00:28:59;97301;;;-3.55;86.08
4326;BME280;58429;49.826;10.880;2024-01-15T00:29:59;97304;;;-3.52;86.15
4326;BME280;58429;49.826;10.880;2024-01-15T00:30:59;97307;;;-3.51;86.16
4326;BME280;58429;49.826;10.880;2024-01-15T00:31:59;97304;;;-3.52;86.05
4326;BME280;58429;49.826;10.880;2024-01-15T00:32:59;97303;;;-3.55;85.91
4326;BME280;58429;49.826;10.880;2024-01-15T00:33:59;97309;;;-3.54;85.97
4326;BME280;58429;49.826;10.880;2024-01-15T00:34:59;97307;;;-3.56;85.97
4326;BME280;58429;49.826;10.880;2024-01-15T00:35:59;97313;;;-3.55;85.9
4326;BME280;58429;49.826;10.880;2024-01-15T00:36:59;97309;;;-3.57;85.85
4326;BME280;58429;49.826;10.880;2024-01-15T00:37:59;97303;;;-3.55;85.92
4326;BME280;58429;49.826;10.880;2024-01-15T00:38:59;97306;;;-3.54;85.99
4326;BME280;58429;49.826;10.880;2024-01-15T00:39:59;97307;;;-3.53;85.98
4326;BME280;58429;49.826;10.880;2024-01-15T00:40:59;97299;;;-3.55;85.93
4326;BME280;58429;49.826;10.880;2024-01-15T00:41:59;97307;;;-3.52;85.91
4326;BME280;58429;49.826;10.880;2024-01-15T00:42:59;97306;;;-3.56;85.9
4326;BME280;58429;49.826;10.880;2024-01-15T00:43:59;97301;;;-3.51;85.89
4326;BME280;58429;49.826;10.880;2024-01-15T00:44:59;97305;;;-3.52;85.83
4326;BME280;58429;49.826;10.880;2024-01-15T00:46:01;97304;;;-3.54;85.78
4326;BME280;58429;49.826;10.880;2024-01-15T00:46:59;97295;;;-3.55;85.71
4326;BME280;58429;49.826;10.880;2024-01-15T00:47:59;97288;;;-3.54;85.7
4326;BME280;58429;49.826;10.880;2024-01-15T00:48:59;97293;;;-3.55;85.61
4326;BME280;58429;49.826;10.880;2024-01-15T00:49:59;97292;;;-3.51;85.62
4326;BME280;58429;49.826;10.880;2024-01-15T00:50:59;97289;;;-3.54;85.6
4326;BME280;58429;49.826;10.880;2024-01-15T00:51:59;97294;;;-3.54;85.57
4326;BME280;58429;49.826;10.880;2024-01-15T00:52:59;97285;;;-3.57;85.55
4326;BME280;58429;49.826;10.880;2024-01-15T00:53:59;97284;;;-3.53;85.57
4326;BME280;58429;49.826;10.880;2024-01-15T00:54:59;97284;;;-3.58;85.54
4326;BME280;58429;49.826;10.880;2024-01-15T00:55:59;97295;;;-3.52;85.56
4326;BME280;58429;49.826;10.880;2024-01-15T00:56:59;97302;;;-3.54;85.49
4326;BME280;58429;49.826;10.880;2024-01-15T00:57:59;97301;;;-3.53;85.48
4326;BME280;58429;49.826;10.880;2024-01-15T00:58:59;97302;;;-3.51;85.49
4326;BME280;58429;49.826;10.880;2024-01-15T00:59:59;97304;;;-3.52;85.42
4326;BME280;58429;49.826;10.880;2024-01-15T01:00:59;97304;;;-3.49;85.43
4326;BME280;58429;49.826;10.880;2024-01-15T01:01:59;97305;;;-3.5;85.3
4326;BME280;58429;49.826;10.880;2024-01-15T01:02:59;97305;;;-3.54;85.22
4326;BME280;58429;49.826;10.880;2024-01-15T01:03:59;97309;;;-3.47;85.01
4326;BME280;58429;49.826;10.880;2024-01-15T01:04:59;97301;;;-3.5;84.93
4326;BME280;58429;49.826;10.880;2024-01-15T01:05:59;97304;;;-3.5;85.01
4326;BME280;58429;49.826;10.880;2024-01-15T01:06:59;97303;;;-3.5;85.05
4326;BME280;58429;49.826;10.880;2024-01-15T01:07:59;97298;;;-3.55;85.08
4326;BME280;58429;49.826;10.880;2024-01-15T01:08:59;97300;;;-3.51;85.09
4326;BME280;58429;49.826;10.880;2024-01-15T01:09:59;97301;;;-3.51;85.07
4326;BME280;58429;49.826;10.880;2024-01-15T01:10:59;97293;;;-3.54;85.13
4326;BME280;58429;49.826;10.880;2024-01-15T01:11:59;97290;;;-3.52;85.29
4326;BME280;58429;49.826;10.880;2024-01-15T01:12:59;97297;;;-3.52;85.35
4326;BME280;58429;49.826;10.880;2024-01-15T01:13:59;97287;;;-3.57;85.22
4326;BME280;58429;49.826;10.880;2024-01-15T01:14:59;97280;;;-3.57;85.29
4326;BME280;58429;49.826;10.880;2024-01-15T01:15:59;97280;;;-3.56;85.47
4326;BME280;58429;49.826;10.880;2024-01-15T01:16:59;97289;;;-3.54;85.55
4326;BME280;58429;49.826;10.880;2024-01-15T01:17:59;97279;;;-3.52;85.67
4326;BME280;58429;49.826;10.880;2024-01-15T01:18:59;97285;;;-3.55;85.66
4326;BME280;58429;49.826;10.880;2024-01-15T01:19:59;97282;;;-3.58;85.68
4326;BME280;58429;49.826;10.880;2024-01-15T01:20:59;97278;;;-3.58;85.77
4326;BME280;58429;49.826;10.880;2024-01-15T01:21:59;97280;;;-3.55;85.7
4326;BME280;58429;49.826;10.880;2024-01-15T01:22:59;97281;;;-3.59;85.71
4326;BME280;58429;49.826;10.880;2024-01-15T01:23:59;97278;;;-3.59;85.73
4326;BME280;58429;49.826;10.880;2024-01-15T01:24:59;97279;;;-3.52;85.88
4326;BME280;58429;49.826;10.880;2024-01-15T01:25:59;97274;;;-3.58;85.89
4326;BME280;58429;49.826;10.880;2024-01-15T01:26:59;97270;;;-3.58;85.82
4326;BME280;58429;49.826;10.880;2024-01-15T01:27:59;97274;;;-3.58;85.98
4326;BME280;58429;49.826;10.880;2024-01-15T01:28:59;97280;;;-3.58;86.05
4326;BME280;58429;49.826;10.880;2024-01-15T01:29:59;97272;;;-3.58;86.03
4326;BME280;58429;49.826;10.880;2024-01-15T01:30:59;97275;;;-3.6;86.19
4326;BME280;58429;49.826;10.880;2024-01-15T01:31:59;97278;;;-3.59;86.22
4326;BME280;58429;49.826;10.880;2024-01-15T01:32:59;97281;;;-3.6;86.25
4326;BME280;58429;49.826;10.880;2024-01-15T01:33:59;97285;;;-3.59;86.22
4326;BME280;58429;49.826;10.880;2024-01-15T01:34:59;97282;;;-3.59;85.99
4326;BME280;58429;49.826;10.880;2024-01-15T01:35:59;97288;;;-3.59;85.95
4326;BME280;58429;49.826;10.880;2024-01-15T01:36:59;97283;;;-3.56;85.99
4326;BME280;58429;49.826;10.880;2024-01-15T01:37:59;97288;;;-3.56;86.03
4326;BME280;58429;49.826;10.880;2024-01-15T01:38:59;97281;;;-3.52;86.06
4326;BME280;58429;49.826;10.880;2024-01-15T01:39:59;97276;;;-3.56;86.06
4326;BME280;58429;49.826;10.880;2024-01-15T01:40:59;97276;;;-3.55;86.06
4326;BME280;58429;49.826;10.880;2024-01-15T01:41:59;97276;;;-3.52;86.06
4326;BME280;58429;49.826;10.880;2024-01-15T01:42:59;97280;;;-3.53;86.04
4326;BME280;58429;49.826;10.880;2024-01-15T01:43:59;97282;;;-3.49;86.07
4326;BME280;58429;49.826;10.880;2024-01-15T01:44:59;97283;;;-3.5;86.02
4326;BME280;58429;49.826;10.880;2024-01-15T01:46:00;97281;;;-3.48;85.87
4326;BME280;58429;49.826;10.880;2024-01-15T01:46:59;97273;;;-3.48;85.76
4326;BME280;58429;49.826;10.880;2024-01-15T01:47:59;97280;;;-3.47;85.74
4326;BME280;58429;49.826;10.880;2024-01-15T01:48:59;97272;;;-3.46;85.71
4326;BME280;58429;49.826;10.880;2024-01-15T01:49:59;97273;;;-3.45;85.67
4326;BME280;58429;49.826;10.880;2024-01-15T01:51:00;97264;;;-3.46;85.65
4326;BME280;58429;49.826;10.880;2024-01-15T01:51:59;97280;;;-3.46;85.5
4326;BME280;58429;49.826;10.880;2024-01-15T01:52:59;97278;;;-3.43;85.44
4326;BME280;58429;49.826;10.880;2024-01-15T01:53:59;97265;;;-3.45;85.52
4326;BME280;58429;49.826;10.880;2024-01-15T01:54:59;97273;;;-3.44;85.36
4326;BME280;58429;49.826;10.880;2024-01-15T01:55:59;97279;;;-3.42;85.4
4326;BME280;58429;49.826;10.880;2024-01-15T01:56:59;97289;;;-3.46;85.41
4326;BME280;58429;49.826;10.880;2024-01-15T01:57:59;97282;;;-3.4;85.29
4326;BME280;58429;49.826;10.880;2024-01-15T01:58:59;97293;;;-3.4;85.22
4326;BME280;58429;49.826;10.880;2024-01-15T01:59:59;97282;;;-3.41;85.26
4326;BME280;58429;49.826;10.880;2024-01-15T02:00:59;97289;;;-3.36;85.32
4326;BME280;58429;49.826;10.880;2024-01-15T02:01:59;97282;;;-3.36;85.3
4326;BME280;58429;49.826;10.880;2024-01-15T02:02:59;97288;;;-3.38;85.31
4326;BME280;58429;49.826;10.880;2024-01-15T02:03:59;97286;;;-3.35;85.29
4326;BME280;58429;49.826;10.880;2024-01-15T02:04:59;97278;;;-3.33;85.18
4326;BME280;58429;49.826;10.880;2024-01-15T02:05:59;97274;;;-3.35;85.02
4326;BME280;58429;49.826;10.880;2024-01-15T02:06:59;97280;;;-3.36;84.74
4326;BME280;58429;49.826;10.880;2024-01-15T02:07:59;97278;;;-3.37;84.86
4326;BME280;58429;49.826;10.880;2024-01-15T02:08:59;97273;;;-3.39;84.94
4326;BME280;58429;49.826;10.880;2024-01-15T02:09:59;97278;;;-3.35;84.96
4326;BME280;58429;49.826;10.880;2024-01-15T02:10:59;97283;;;-3.37;84.94
4326;BME280;58429;49.826;10.880;2024-01-15T02:11:59;97284;;;-3.35;85
4326;BME280;58429;49.826;10.880;2024-01-15T02:12:59;97292;;;-3.35;84.82
4326;BME280;58429;49.826;10.880;2024-01-15T02:13:59;97287;;;-3.34;84.8
4326;BME280;58429;49.826;10.880;2024-01-15T02:14:59;97284;;;-3.32;84.95
4326;BME280;58429;49.826;10.880;2024-01-15T02:15:59;97286;;;-3.31;85.04
4326;BME280;58429;49.826;10.880;2024-01-15T02:16:59;97286;;;-3.3;85.13
4326;BME280;58429;49.826;10.880;2024-01-15T02:18:00;97287;;;-3.23;84.97
4326;BME280;58429;49.826;10.880;2024-01-15T02:18:59;97286;;;-3.3;84.94
4326;BME280;58429;49.826;10.880;2024-01-15T02:19:59;97280;;;-3.3;84.79
4326;BME280;58429;49.826;10.880;2024-01-15T02:20:59;97279;;;-3.27;84.82
4326;BME280;58429;49.826;10.880;2024-01-15T02:21:59;97283;;;-3.29;84.82
4326;BME280;58429;49.826;10.880;2024-01-15T02:23:03;97280;;;-3.29;84.94
4326;BME280;58429;49.826;10.880;2024-01-15T02:23:59;97270;;;-3.27;85.04
4326;BME280;58429;49.826;10.880;2024-01-15T02:24:59;97279;;;-3.28;85.08
4326;BME280;58429;49.826;10.880;2024-01-15T02:25:59;97274;;;-3.26;84.87
4326;BME280;58429;49.826;10.880;2024-01-15T02:26:59;97265;;;-3.23;84.99
4326;BME280;58429;49.826;10.880;2024-01-15T02:27:59;97269;;;-3.28;84.8
4326;BME280;58429;49.826;10.880;2024-01-15T02:28:59;97269;;;-3.23;84.88
4326;BME280;58429;49.826;10.880;2024-01-15T02:29:59;97272;;;-3.21;84.88
4326;BME280;58429;49.826;10.880;2024-01-15T02:30:59;97272;;;-3.23;84.92
4326;BME280;58429;49.826;10.880;2024-01-15T02:31:59;97264;;;-3.22;84.9
4326;BME280;58429;49.826;10.880;2024-01-15T02:32:59;97271;;;-3.24;84.81
4326;BME280;58429;49.826;10.880;2024-01-15T02:33:59;97265;;;-3.25;84.82
4326;BME280;58429;49.826;10.880;2024-01-15T02:34:59;97264;;;-3.2;84.93
4326;BME280;58429;49.826;10.880;2024-01-15T02:35:59;97262;;;-3.18;84.96
4326;BME280;58429;49.826;10.880;2024-01-15T02:36:59;97261;;;-3.19;85
4326;BME280;58429;49.826;10.880;2024-01-15T02:37:59;97260;;;-3.21;84.93
4326;BME280;58429;49.826;10.880;2024-01-15T02:38:59;97258;;;-3.21;84.83
4326;BME280;58429;49.826;10.880;2024-01-15T02:39:59;97267;;;-3.19;84.87
4326;BME280;58429;49.826;10.880;2024-01-15T02:40:59;97267;;;-3.2;84.95
4326;BME280;58429;49.826;10.880;2024-01-15T02:41:59;97266;;;-3.18;85.01
4326;BME280;58429;49.826;10.880;2024-01-15T02:42:59;97262;;;-3.2;84.92
4326;BME280;58429;49.826;10.880;2024-01-15T02:43:59;97263;;;-3.21;84.93
4326;BME280;58429;49.826;10.880;2024-01-15T02:44:59;97270;;;-3.2;85.01
4326;BME280;58429;49.826;10.880;2024-01-15T02:45:59;97259;;;-3.18;84.98
4326;BME280;58429;49.826;10.880;2024-01-15T02:46:59;97271;;;-3.16;85.09
4326;BME280;58429;49.826;10.880;2024-01-15T02:47:59;97270;;;-3.17;85
4326;BME280;58429;49.826;10.880;2024-01-15T02:48:59;97277;;;-3.14;85.07
4326;BME280;58429;49.826;10.880;2024-01-15T02:49:59;97271;;;-3.15;85.01
4326;BME280;58429;49.826;10.880;2024-01-15T02:50:59;97271;;;-3.14;84.95
4326;BME280;58429;49.826;10.880;2024-01-15T02:51:59;97277;;;-3.15;84.96
4326;BME280;58429;49.826;10.880;2024-01-15T02:52:59;97273;;;-3.11;84.89
4326;BME280;58429;49.826;10.880;2024-01-15T02:53:59;97280;;;-3.14;85.02
4326;BME280;58429;49.826;10.880;2024-01-15T02:54:59;97276;;;-3.12;84.89
4326;BME280;58429;49.826;10.880;2024-01-15T02:55:59;97269;;;-3.11;84.86
4326;BME280;58429;49.826;10.880;2024-01-15T02:56:59;97270;;;-3.09;84.82
4326;BME280;58429;49.826;10.880;2024-01-15T02:57:59;97270;;;-3.09;84.81
4326;BME280;58429;49.826;10.880;2024-01-15T02:58:59;97267;;;-3.08;84.8
4326;BME280;58429;49.826;10.880;2024-01-15T02:59:59;97266;;;-3.07;84.88
4326;BME280;58429;49.826;10.880;2024-01-15T03:00:59;97268;;;-3.09;84.88
4326;BME280;58429;49.826;10.880;2024-01-15T03:01:59;97266;;;-3.08;84.92
4326;BME280;58429;49.826;10.880;2024-01-15T03:02:59;97261;;;-3.09;85.02
4326;BME280;58429;49.826;10.880;2024-01-15T03:03:59;97259;;;-3.09;84.9
4326;BME280;58429;49.826;10.880;2024-01-15T03:04:59;97254;;;-3.08;84.77
4326;BME280;58429;49.826;10.880;2024-01-15T03:05:59;97258;;;-3.07;84.93
4326;BME280;58429;49.826;10.880;2024-01-15T03:07:00;97261;;;-3.09;84.97
4326;BME280;58429;49.826;10.880;2024-01-15T03:07:59;97261;;;-3.05;84.91
4326;BME280;58429;49.826;10.880;2024-01-15T03:08:59;97264;;;-3.06;84.97
4326;BME280;58429;49.826;10.880;2024-01-15T03:09:59;97264;;;-3.04;84.91
4326;BME280;58429;49.826;10.880;2024-01-15T03:10:59;97262;;;-3.01;85.01
4326;BME280;58429;49.826;10.880;2024-01-15T03:11:59;97265;;;-3.02;85.02
4326;BME280;58429;49.826;10.880;2024-01-15T03:12:59;97268;;;-3.02;85.03
4326;BME280;58429;49.826;10.880;2024-01-15T03:13:59;97268;;;-3.02;85.02
4326;BME280;58429;49.826;10.880;2024-01-15T03:14:59;97266;;;-3.02;85.2
4326;BME280;58429;49.826;10.880;2024-01-15T03:15:59;97265;;;-2.99;85.39
4326;BME280;58429;49.826;10.880;2024-01-15T03:16:59;97260;;;-2.97;85.26
4326;BME280;58429;49.826;10.880;2024-01-15T03:17:59;97265;;;-3;85.26
4326;BME280;58429;49.826;10.880;2024-01-15T03:18:59;97269;;;-3;85.37
4326;BME280;58429;49.826;10.880;2024-01-15T03:19:59;97249;;;-2.97;85.36
4326;BME280;58429;49.826;10.880;2024-01-15T03:20:59;97259;;;-2.98;85.21
4326;BME280;58429;49.826;10.880;2024-01-15T03:21:59;97257;;;-2.96;85.19
4326;BME280;58429;49.826;10.880;2024-01-15T03:22:59;97262;;;-2.97;85.2
4326;BME280;58429;49.826;10.880;2024-01-15T03:23:59;97254;;;-2.94;85.14
4326;BME280;58429;49.826;10.880;2024-01-15T03:24:59;97257;;;-2.98;85.23
4326;BME280;58429;49.826;10.880;2024-01-15T03:26:00;97252;;;-2.96;85.49
4326;BME280;58429;49.826;10.880;2024-01-15T03:27:00;97244;;;-2.95;85.53
4326;BME280;58429;49.826;10.880;2024-01-15T03:27:59;97243;;;-2.97;85.48
4326;BME280;58429;49.826;10.880;2024-01-15T03:28:59;97248;;;-2.93;85.4
4326;BME280;58429;49.826;10.880;2024-01-15T03:29:59;97242;;;-2.96;85.35
4326;BME280;58429;49.826;10.880;2024-01-15T03:30:59;97244;;;-2.95;85.28
4326;BME280;58429;49.826;10.880;2024-01-15T03:32:00;97248;;;-2.93;85.32
4326;BME280;58429;49.826;10.880;2024-01-15T03:32:59;97238;;;-2.94;85.41
4326;BME280;58429;49.826;10.880;2024-01-15T03:34:00;97236;;;-2.96;85.25
4326;BME280;58429;49.826;10.880;2024-01-15T03:34:59;97240;;;-2.94;85.3
4326;BME280;58429;49.826;10.880;2024-01-15T03:35:59;97237;;;-2.95;85.44
4326;BME280;58429;49.826;10.880;2024-01-15T03:37:00;97242;;;-2.94;85.25
4326;BME280;58429;49.826;10.880;2024-01-15T03:37:59;97236;;;-2.94;85.33
4326;BME280;58429;49.826;10.880;2024-01-15T03:38:59;97243;;;-2.94;85.32
4326;BME280;58429;49.826;10.880;2024-01-15T03:40:00;97241;;;-2.91;85.34
4326;BME280;58429;49.826;10.880;2024-01-15T03:41:00;97238;;;-2.91;85.45
4326;BME280;58429;49.826;10.880;2024-01-15T03:42:00;97243;;;-2.91;85.48
4326;BME280;58429;49.826;10.880;2024-01-15T03:43:00;97240;;;-2.89;85.61
4326;BME280;58429;49.826;10.880;2024-01-15T03:43:59;97238;;;-2.88;85.63
4326;BME280;58429;49.826;10.880;2024-01-15T03:44:59;97236;;;-2.89;85.44
4326;BME280;58429;49.826;10.880;2024-01-15T03:45:59;97237;;;-2.88;85.33
4326;BME280;58429;49.826;10.880;2024-01-15T03:46:59;97243;;;-2.85;85.21
4326;BME280;58429;49.826;10.880;2024-01-15T03:48:00;97243;;;-2.88;85.25
4326;BME280;58429;49.826;10.880;2024-01-15T03:48:59;97234;;;-2.86;85.17
4326;BME280;58429;49.826;10.880;2024-01-15T03:50:00;97248;;;-2.82;85.19
4326;BME280;58429;49.826;10.880;2024-01-15T03:51:00;97250;;;-2.83;85.19
4326;BME280;58429;49.826;10.880;2024-01-15T03:51:59;97243;;;-2.84;85.06
4326;BME280;58429;49.826;10.880;2024-01-15T03:52:59;97254;;;-2.78;84.97
4326;BME280;58429;49.826;10.880;2024-01-15T03:53:59;97243;;;-2.81;84.97
4326;BME280;58429;49.826;10.880;2024-01-15T03:55:00;97240;;;-2.81;85.02
4326;BME280;58429;49.826;10.880;2024-01-15T03:56:00;97247;;;-2.77;85.01
4326;BME280;58429;49.826;10.880;2024-01-15T03:57:00;97249;;;-2.75;85
4326;BME280;58429;49.826;10.880;2024-01-15T03:57:59;97253;;;-2.75;85.09
4326;BME280;58429;49.826;10.880;2024-01-15T03:59:00;97247;;;-2.78;85.06
4326;BME280;58429;49.826;10.880;2024-01-15T04:00:00;97249;;;-2.74;85.04
4326;BME280;58429;49.826;10.880;2024-01-15T04:00:59;97252;;;-2.76;85
4326;BME280;58429;49.826;10.880;2024-01-15T04:01:59;97249;;;-2.76;85
4326;BME280;58429;49.826;10.880;2024-01-15T04:02:59;97251;;;-2.75;85.03
4326;BME280;58429;49.826;10.880;2024-01-15T04:04:00;97244;;;-2.74;85.01
4326;BME280;58429;49.826;10.880;2024-01-15T04:05:00;97227;;;-2.73;85.08
4326;BME280;58429;49.826;10.880;2024-01-15T04:05:59;97236;;;-2.73;85.15
4326;BME280;58429;49.826;10.880;2024-01-15T04:07:00;97234;;;-2.74;85.23
4326;BME280;58429;49.826;10.880;2024-01-15T04:08:00;97231;;;-2.72;85.1
4326;BME280;58429;49.826;10.880;2024-01-15T04:09:00;97240;;;-2.74;85.08
4326;BME280;58429;49.826;10.880;2024-01-15T04:10:00;97232;;;-2.7;85.09
4326;BME280;58429;49.826;10.880;2024-01-15T04:11:00;97236;;;-2.69;84.99
4326;BME280;58429;49.826;10.880;2024-01-15T04:12:00;97233;;;-2.69;85.04
4326;BME280;58429;49.826;10.880;2024-01-15T04:13:00;97236;;;-2.66;85.07
4326;BME280;58429;49.826;10.880;2024-01-15T04:14:00;97244;;;-2.68;85.24
4326;BME280;58429;49.826;10.880;2024-01-15T04:15:00;97233;;;-2.66;85.16
4326;BME280;58429;49.826;10.880;2024-01-15T04:16:00;97241;;;-2.65;85.12
4326;BME280;58429;49.826;10.880;2024-01-15T04:17:00;97247;;;-2.67;85.14
4326;BME280;58429;49.826;10.880;2024-01-15T04:18:00;97232;;;-2.67;85.14
4326;BME280;58429;49.826;10.880;2024-01-15T04:19:00;97236;;;-2.66;85.23
4326;BME280;58429;49.826;10.880;2024-01-15T04:20:00;97234;;;-2.66;85.2
4326;BME280;58429;49.826;10.880;2024-01-15T04:21:00;97232;;;-2.66;85.23
4326;BME280;58429;49.826;10.880;2024-01-15T04:22:00;97234;;;-2.66;85.37
4326;BME280;58429;49.826;10.880;2024-01-15T04:23:00;97227;;;-2.66;85.39
4326;BME280;58429;49.826;10.880;2024-01-15T04:24:00;97225;;;-2.63;85.44
4326;BME280;58429;49.826;10.880;2024-01-15T04:25:00;97221;;;-2.64;85.42
4326;BME280;58429;49.826;10.880;2024-01-15T04:26:00;97232;;;-2.63;85.47
4326;BME280;58429;49.826;10.880;2024-01-15T04:27:00;97228;;;-2.62;85.44
4326;BME280;58429;49.826;10.880;2024-01-15T04:28:00;97223;;;-2.6;85.37
4326;BME280;58429;49.826;10.880;2024-01-15T04:29:00;97228;;;-2.61;85.38
4326;BME280;58429;49.826;10.880;2024-01-15T04:30:00;97223;;;-2.61;85.44
4326;BME280;58429;49.826;10.880;2024-01-15T04:31:00;97230;;;-2.59;85.43
4326;BME280;58429;49.826;10.880;2024-01-15T04:32:00;97229;;;-2.6;85.37
4326;BME280;58429;49.826;10.880;2024-01-15T04:33:00;97237;;;-2.58;85.44
4326;BME280;58429;49.826;10.880;2024-01-15T04:34:00;97227;;;-2.6;85.56
4326;BME280;58429;49.826;10.880;2024-01-15T04:35:00;97235;;;-2.56;85.58
4326;BME280;58429;49.826;10.880;2024-01-15T04:36:01;97235;;;-2.53;85.56
4326;BME280;58429;49.826;10.880;2024-01-15T04:37:00;97240;;;-2.54;85.61
4326;BME280;58429;49.826;10.880;2024-01-15T04:38:00;97235;;;-2.51;85.58
4326;BME280;58429;49.826;10.880;2024-01-15T04:39:00;97232;;;-2.56;85.46
4326;BME280;58429;49.826;10.880;2024-01-15T04:40:00;97231;;;-2.54;85.5
4326;BME280;58429;49.826;10.880;2024-01-15T04:41:00;97234;;;-2.51;85.58
4326;BME280;58429;49.826;10.880;2024-01-15T04:42:00;97229;;;-2.54;85.59
4326;BME280;58429;49.826;10.880;2024-01-15T04:43:00;97227;;;-2.52;85.45
4326;BME280;58429;49.826;10.880;2024-01-15T04:44:00;97229;;;-2.48;85.51
4326;BME280;58429;49.826;10.880;2024-01-15T04:45:00;97230;;;-2.49;85.52
4326;BME280;58429;49.826;10.880;2024-01-15T04:46:00;97217;;;-2.49;85.62
4326;BME280;58429;49.826;10.880;2024-01-15T04:47:00;97219;;;-2.44;85.45
4326;BME280;58429;49.826;10.880;2024-01-15T04:48:00;97217;;;-2.45;85.51
4326;BME280;58429;49.826;10.880;2024-01-15T04:49:00;97210;;;-2.47;85.53
4326;BME280;58429;49.826;10.880;2024-01-15T04:50:00;97214;;;-2.43;85.58
4326;BME280;58429;49.826;10.880;2024-01-15T04:51:00;97213;;;-2.44;85.56
4326;BME280;58429;49.826;10.880;2024-01-15T04:52:00;97208;;;-2.43;85.6
4326;BME280;58429;49.826;10.880;2024-01-15T04:53:00;97212;;;-2.42;85.59
4326;BME280;58429;49.826;10.880;2024-01-15T04:54:00;97217;;;-2.43;85.57
4326;BME280;58429;49.826;10.880;2024-01-15T04:55:00;97207;;;-2.43;85.61
4326;BME280;58429;49.826;10.880;2024-01-15T04:56:00;97205;;;-2.45;85.62
4326;BME280;58429;49.826;10.880;2024-01-15T04:57:00;97211;;;-2.41;85.65
4326;BME280;58429;49.826;10.880;2024-01-15T04:58:00;97212;;;-2.42;85.64
4326;BME280;58429;49.826;10.880;2024-01-15T04:59:00;97213;;;-2.41;85.73
4326;BME280;58429;49.826;10.880;2024-01-15T05:00:00;97211;;;-2.42;85.79
4326;BME280;58429;49.826;10.880;2024-01-15T05:01:00;97208;;;-2.4;85.84
4326;BME280;58429;49.826;10.880;2024-01-15T05:02:00;97215;;;-2.4;85.81
4326;BME280;58429;49.826;10.880;2024-01-15T05:03:00;97204;;;-2.39;85.83
4326;BME280;58429;49.826;10.880;2024-01-15T05:04:00;97204;;;-2.41;85.72
4326;BME280;58429;49.826;10.880;2024-01-15T05:05:00;97198;;;-2.41;85.82
4326;BME280;58429;49.826;10.880;2024-01-15T05:06:00;97203;;;-2.36;85.78
4326;BME280;58429;49.826;10.880;2024-01-15T05:07:00;97202;;;-2.4;85.69
4326;BME280;58429;49.826;10.880;2024-01-15T05:08:00;97208;;;-2.39;85.76
4326;BME280;58429;49.826;10.880;2024-01-15T05:09:00;97204;;;-2.4;85.82
4326;BME280;58429;49.826;10.880;2024-01-15T05:10:00;97197;;;-2.36;85.9
4326;BME280;58429;49.826;10.880;2024-01-15T05:11:00;97202;;;-2.4;86.03
4326;BME280;58429;49.826;10.880;2024-01-15T05:12:00;97200;;;-2.38;86.1
4326;BME280;58429;49.826;10.880;2024-01-15T05:13:00;97199;;;-2.38;86.18
4326;BME280;58429;49.826;10.880;2024-01-15T05:14:00;97197;;;-2.4;86.38
4326;BME280;58429;49.826;10.880;2024-01-15T05:15:00;97202;;;-2.38;86.46
4326;BME280;58429;49.826;10.880;2024-01-15T05:16:00;97197;;;-2.41;86.54
4326;BME280;58429;49.826;10.880;2024-01-15T05:17:00;97197;;;-2.4;86.68
4326;BME280;58429;49.826;10.880;2024-01-15T05:18:00;97195;;;-2.39;86.65
4326;BME280;58429;49.826;10.880;2024-01-15T05:19:00;97192;;;-2.39;86.72
4326;BME280;58429;49.826;10.880;2024-01-15T05:20:00;97200;;;-2.41;86.88
4326;BME280;58429;49.826;10.880;2024-01-15T05:21:00;97201;;;-2.41;86.79
4326;BME280;58429;49.826;10.880;2024-01-15T05:22:00;97200;;;-2.4;86.84
4326;BME280;58429;49.826;10.880;2024-01-15T05:23:00;97202;;;-2.39;86.88
4326;BME280;58429;49.826;10.880;2024-01-15T05:24:00;97207;;;-2.41;86.91
4326;BME280;58429;49.826;10.880;2024-01-15T05:25:00;97202;;;-2.42;86.97
4326;BME280;58429;49.826;10.880;2024-01-15T05:26:00;97202;;;-2.39;87.21
4326;BME280;58429;49.826;10.880;2024-01-15T05:27:00;97208;;;-2.41;87.27
4326;BME280;58429;49.826;10.880;2024-01-15T05:28:00;97210;;;-2.42;87.09
4326;BME280;58429;49.826;10.880;2024-01-15T05:29:00;97210;;;-2.38;87.13
4326;BME280;58429;49.826;10.880;2024-01-15T05:30:00;97211;;;-2.39;87.2
4326;BME280;58429;49.826;10.880;2024-01-15T05:31:00;97214;;;-2.38;87.28
4326;BME280;58429;49.826;10.880;2024-01-15T05:32:00;97211;;;-2.4;87.28
4326;BME280;58429;49.826;10.880;2024-01-15T05:33:00;97221;;;-2.42;87.21
4326;BME280;58429;49.826;10.880;2024-01-15T05:34:00;97212;;;-2.41;87.34